sensor_id;sensor_type;location;lat;lon;timestamp;P1;durP1;ratioP1;P2;durP2;ratioP2
6840;SDS011;3458;53.678;14.080;2022-08-19T00:00:25;9.30;;;5.83;;
6840;SDS011;3458;53.678;14.080;2022-08-19T00:02:50;5.93;;;5.33;;
6840;SDS011;3458;53.678;14.080;2022-08-19T00:05:17;7.10;;;5.07;;
6840;SDS011;3458;53.678;14.080;2022-08-19T00:07:43;9.17;;;6.57;;
6840;SDS011;3458;53.678;14.080;2022-08-19T00:10:09;6.60;;;5.87;;
6840;SDS011;3458;53.678;14.080;2022-08-19T00:12:36;6.10;;;5.50;;
6840;SDS011;3458;53.678;14.080;2022-08-19T00:15:03;6.90;;;6.20;;
6840;SDS011;3458;53.678;14.080;2022-08-19T00:17:41;12.30;;;7.07;;
6840;SDS011;3458;53.678;14.080;2022-08-19T00:20:08;13.03;;;7.53;;
6840;SDS011;3458;53.678;14.080;2022-08-19T00:22:36;9.37;;;7.30;;
6840;SDS011;3458;53.678;14.080;2022-08-19T00:25:03;14.80;;;7.67;;
6840;SDS011;3458;53.678;14.080;2022-08-19T00:27:30;11.97;;;7.20;;
6840;SDS011;3458;53.678;14.080;2022-08-19T00:29:55;7.90;;;6.57;;
6840;SDS011;3458;53.678;14.080;2022-08-19T00:32:21;7.70;;;6.97;;
6840;SDS011;3458;53.678;14.080;2022-08-19T00:34:47;8.87;;;7.97;;
6840;SDS011;3458;53.678;14.080;2022-08-19T00:37:12;7.50;;;6.80;;
6840;SDS011;3458;53.678;14.080;2022-08-19T00:39:38;14.80;;;8.47;;
6840;SDS011;3458;53.678;14.080;2022-08-19T00:42:03;12.17;;;8.63;;
6840;SDS011;3458;53.678;14.080;2022-08-19T00:44:31;17.53;;;7.60;;
6840;SDS011;3458;53.678;14.080;2022-08-19T00:46:58;10.07;;;8.57;;
6840;SDS011;3458;53.678;14.080;2022-08-19T00:49:37;9.77;;;8.07;;
6840;SDS011;3458;53.678;14.080;2022-08-19T00:52:14;16.77;;;8.20;;
6840;SDS011;3458;53.678;14.080;2022-08-19T00:54:44;9.23;;;7.93;;
6840;SDS011;3458;53.678;14.080;2022-08-19T00:57:13;11.43;;;8.10;;
6840;SDS011;3458;53.678;14.080;2022-08-19T00:59:42;9.87;;;8.03;;
6840;SDS011;3458;53.678;14.080;2022-08-19T01:02:11;11.83;;;7.83;;
6840;SDS011;3458;53.678;14.080;2022-08-19T01:04:37;15.03;;;8.63;;
6840;SDS011;3458;53.678;14.080;2022-08-19T01:07:02;9.83;;;8.60;;
6840;SDS011;3458;53.678;14.080;2022-08-19T01:09:28;13.30;;;7.77;;
6840;SDS011;3458;53.678;14.080;2022-08-19T01:11:55;13.37;;;8.00;;
6840;SDS011;3458;53.678;14.080;2022-08-19T01:14:21;9.00;;;8.10;;
6840;SDS011;3458;53.678;14.080;2022-08-19T01:16:47;13.33;;;9.13;;
6840;SDS011;3458;53.678;14.080;2022-08-19T01:19:16;9.40;;;8.40;;
6840;SDS011;3458;53.678;14.080;2022-08-19T01:24:48;10.40;;;9.30;;
6840;SDS011;3458;53.678;14.080;2022-08-19T01:27:14;11.90;;;9.50;;
6840;SDS011;3458;53.678;14.080;2022-08-19T01:29:40;9.60;;;8.47;;
6840;SDS011;3458;53.678;14.080;2022-08-19T01:32:07;10.87;;;8.40;;
6840;SDS011;3458;53.678;14.080;2022-08-19T01:34:36;12.10;;;9.13;;
6840;SDS011;3458;53.678;14.080;2022-08-19T01:37:05;11.23;;;7.53;;
6840;SDS011;3458;53.678;14.080;2022-08-19T01:39:33;10.13;;;8.77;;
6840;SDS011;3458;53.678;14.080;2022-08-19T01:41:59;12.80;;;9.03;;
6840;SDS011;3458;53.678;14.080;2022-08-19T01:44:28;9.77;;;8.77;;
6840;SDS011;3458;53.678;14.080;2022-08-19T01:46:53;11.30;;;8.77;;
6840;SDS011;3458;53.678;14.080;2022-08-19T01:49:20;8.50;;;7.70;;
6840;SDS011;3458;53.678;14.080;2022-08-19T01:51:48;10.57;;;8.83;;
6840;SDS011;3458;53.678;14.080;2022-08-19T01:54:15;9.07;;;8.07;;
6840;SDS011;3458;53.678;14.080;2022-08-19T01:56:42;9.33;;;8.43;;
6840;SDS011;3458;53.678;14.080;2022-08-19T01:59:08;13.30;;;8.57;;
6840;SDS011;3458;53.678;14.080;2022-08-19T02:01:37;8.90;;;8.00;;
6840;SDS011;3458;53.678;14.080;2022-08-19T02:04:03;9.03;;;8.13;;
6840;SDS011;3458;53.678;14.080;2022-08-19T02:06:30;10.83;;;8.50;;
6840;SDS011;3458;53.678;14.080;2022-08-19T02:08:57;11.63;;;7.93;;
6840;SDS011;3458;53.678;14.080;2022-08-19T02:11:25;10.20;;;8.77;;
6840;SDS011;3458;53.678;14.080;2022-08-19T02:13:57;13.10;;;9.30;;
6840;SDS011;3458;53.678;14.080;2022-08-19T02:16:23;15.37;;;9.53;;
6840;SDS011;3458;53.678;14.080;2022-08-19T02:18:49;12.70;;;8.50;;
6840;SDS011;3458;53.678;14.080;2022-08-19T02:21:16;9.27;;;8.37;;
6840;SDS011;3458;53.678;14.080;2022-08-19T02:23:43;9.40;;;8.30;;
6840;SDS011;3458;53.678;14.080;2022-08-19T02:26:08;11.10;;;8.13;;
6840;SDS011;3458;53.678;14.080;2022-08-19T02:28:35;11.43;;;7.57;;
6840;SDS011;3458;53.678;14.080;2022-08-19T02:31:01;12.83;;;9.90;;
6840;SDS011;3458;53.678;14.080;2022-08-19T02:33:28;10.33;;;9.23;;
6840;SDS011;3458;53.678;14.080;2022-08-19T02:35:54;8.83;;;8.00;;
6840;SDS011;3458;53.678;14.080;2022-08-19T02:38:19;15.63;;;8.10;;
6840;SDS011;3458;53.678;14.080;2022-08-19T02:40:52;8.80;;;7.90;;
6840;SDS011;3458;53.678;14.080;2022-08-19T02:43:23;8.40;;;7.60;;
6840;SDS011;3458;53.678;14.080;2022-08-19T02:45:50;10.77;;;8.60;;
6840;SDS011;3458;53.678;14.080;2022-08-19T02:48:19;10.23;;;8.70;;
6840;SDS011;3458;53.678;14.080;2022-08-19T02:50:46;11.43;;;7.60;;
6840;SDS011;3458;53.678;14.080;2022-08-19T02:53:17;9.80;;;8.80;;
6840;SDS011;3458;53.678;14.080;2022-08-19T02:55:44;13.30;;;8.60;;
6840;SDS011;3458;53.678;14.080;2022-08-19T02:58:11;9.93;;;8.93;;
6840;SDS011;3458;53.678;14.080;2022-08-19T03:00:41;13.60;;;8.17;;
6840;SDS011;3458;53.678;14.080;2022-08-19T03:03:08;10.07;;;8.60;;
6840;SDS011;3458;53.678;14.080;2022-08-19T03:05:34;10.00;;;8.83;;
6840;SDS011;3458;53.678;14.080;2022-08-19T03:07:59;8.80;;;7.80;;
6840;SDS011;3458;53.678;14.080;2022-08-19T03:10:25;11.43;;;8.70;;
6840;SDS011;3458;53.678;14.080;2022-08-19T03:12:50;14.53;;;8.70;;
6840;SDS011;3458;53.678;14.080;2022-08-19T03:15:16;14.03;;;8.50;;
6840;SDS011;3458;53.678;14.080;2022-08-19T03:17:41;11.03;;;9.00;;
6840;SDS011;3458;53.678;14.080;2022-08-19T03:20:07;11.97;;;8.63;;
6840;SDS011;3458;53.678;14.080;2022-08-19T03:22:32;9.87;;;8.33;;
6840;SDS011;3458;53.678;14.080;2022-08-19T03:24:58;14.33;;;9.30;;
6840;SDS011;3458;53.678;14.080;2022-08-19T03:27:24;15.90;;;8.73;;
6840;SDS011;3458;53.678;14.080;2022-08-19T03:29:49;18.33;;;10.70;;
6840;SDS011;3458;53.678;14.080;2022-08-19T03:32:16;17.03;;;10.03;;
6840;SDS011;3458;53.678;14.080;2022-08-19T03:34:41;19.63;;;10.70;;
6840;SDS011;3458;53.678;14.080;2022-08-19T03:37:08;27.63;;;10.90;;
6840;SDS011;3458;53.678;14.080;2022-08-19T03:39:36;16.30;;;9.83;;
6840;SDS011;3458;53.678;14.080;2022-08-19T03:42:03;20.73;;;14.03;;
6840;SDS011;3458;53.678;14.080;2022-08-19T03:44:29;16.50;;;11.33;;
6840;SDS011;3458;53.678;14.080;2022-08-19T03:46:57;10.63;;;8.87;;
6840;SDS011;3458;53.678;14.080;2022-08-19T03:49:31;16.67;;;10.20;;
6840;SDS011;3458;53.678;14.080;2022-08-19T03:51:58;13.13;;;9.60;;
6840;SDS011;3458;53.678;14.080;2022-08-19T03:54:25;17.43;;;9.90;;
6840;SDS011;3458;53.678;14.080;2022-08-19T03:56:53;13.23;;;9.37;;
6840;SDS011;3458;53.678;14.080;2022-08-19T03:59:31;14.93;;;10.50;;
6840;SDS011;3458;53.678;14.080;2022-08-19T04:01:59;15.27;;;10.27;;
6840;SDS011;3458;53.678;14.080;2022-08-19T04:04:28;21.77;;;10.40;;
6840;SDS011;3458;53.678;14.080;2022-08-19T04:06:53;11.40;;;9.50;;
6840;SDS011;3458;53.678;14.080;2022-08-19T04:09:20;13.87;;;10.30;;
6840;SDS011;3458;53.678;14.080;2022-08-19T04:11:47;13.93;;;10.17;;
6840;SDS011;3458;53.678;14.080;2022-08-19T04:14:17;14.67;;;9.80;;
6840;SDS011;3458;53.678;14.080;2022-08-19T04:16:45;12.40;;;11.10;;
6840;SDS011;3458;53.678;14.080;2022-08-19T04:19:12;16.33;;;10.60;;
6840;SDS011;3458;53.678;14.080;2022-08-19T04:21:39;11.60;;;9.97;;
6840;SDS011;3458;53.678;14.080;2022-08-19T04:24:04;23.27;;;11.60;;
6840;SDS011;3458;53.678;14.080;2022-08-19T04:26:32;18.20;;;10.37;;
6840;SDS011;3458;53.678;14.080;2022-08-19T04:28:59;12.77;;;10.27;;
6840;SDS011;3458;53.678;14.080;2022-08-19T04:31:27;14.07;;;10.47;;
6840;SDS011;3458;53.678;14.080;2022-08-19T04:33:56;18.27;;;10.90;;
6840;SDS011;3458;53.678;14.080;2022-08-19T04:36:25;12.77;;;10.03;;
6840;SDS011;3458;53.678;14.080;2022-08-19T04:38:55;11.93;;;10.63;;
6840;SDS011;3458;53.678;14.080;2022-08-19T04:41:24;11.80;;;9.90;;
6840;SDS011;3458;53.678;14.080;2022-08-19T04:44:09;15.10;;;11.13;;
6840;SDS011;3458;53.678;14.080;2022-08-19T04:46:35;12.83;;;11.40;;
6840;SDS011;3458;53.678;14.080;2022-08-19T04:49:02;11.80;;;9.87;;
6840;SDS011;3458;53.678;14.080;2022-08-19T04:51:30;11.37;;;10.10;;
6840;SDS011;3458;53.678;14.080;2022-08-19T04:53:56;11.13;;;9.40;;
6840;SDS011;3458;53.678;14.080;2022-08-19T04:56:22;14.20;;;10.80;;
6840;SDS011;3458;53.678;14.080;2022-08-19T04:58:50;15.77;;;10.07;;
6840;SDS011;3458;53.678;14.080;2022-08-19T05:01:18;13.30;;;10.70;;
6840;SDS011;3458;53.678;14.080;2022-08-19T05:03:45;15.57;;;10.50;;
6840;SDS011;3458;53.678;14.080;2022-08-19T05:06:13;14.90;;;10.20;;
6840;SDS011;3458;53.678;14.080;2022-08-19T05:08:41;15.50;;;11.30;;
6840;SDS011;3458;53.678;14.080;2022-08-19T05:14:06;14.43;;;11.40;;
6840;SDS011;3458;53.678;14.080;2022-08-19T05:16:33;14.90;;;10.10;;
6840;SDS011;3458;53.678;14.080;2022-08-19T05:18:59;11.23;;;9.80;;
6840;SDS011;3458;53.678;14.080;2022-08-19T05:22:00;14.10;;;11.73;;
6840;SDS011;3458;53.678;14.080;2022-08-19T05:24:44;13.80;;;10.63;;
6840;SDS011;3458;53.678;14.080;2022-08-19T05:27:10;14.73;;;11.40;;
6840;SDS011;3458;53.678;14.080;2022-08-19T05:29:35;14.30;;;11.60;;
6840;SDS011;3458;53.678;14.080;2022-08-19T05:32:03;13.40;;;10.40;;
6840;SDS011;3458;53.678;14.080;2022-08-19T05:34:30;14.90;;;10.70;;
6840;SDS011;3458;53.678;14.080;2022-08-19T05:36:56;16.10;;;11.53;;
6840;SDS011;3458;53.678;14.080;2022-08-19T05:39:24;15.43;;;12.10;;
6840;SDS011;3458;53.678;14.080;2022-08-19T05:41:53;38.33;;;26.37;;
6840;SDS011;3458;53.678;14.080;2022-08-19T05:44:22;21.30;;;17.23;;
6840;SDS011;3458;53.678;14.080;2022-08-19T05:46:49;15.67;;;13.00;;
6840;SDS011;3458;53.678;14.080;2022-08-19T05:49:17;34.43;;;20.00;;
6840;SDS011;3458;53.678;14.080;2022-08-19T05:51:44;12.73;;;10.83;;
6840;SDS011;3458;53.678;14.080;2022-08-19T05:54:10;18.40;;;11.83;;
6840;SDS011;3458;53.678;14.080;2022-08-19T05:56:38;17.87;;;12.77;;
6840;SDS011;3458;53.678;14.080;2022-08-19T05:59:05;15.17;;;11.57;;
6840;SDS011;3458;53.678;14.080;2022-08-19T06:01:33;13.50;;;10.00;;
6840;SDS011;3458;53.678;14.080;2022-08-19T06:04:00;11.93;;;10.13;;
6840;SDS011;3458;53.678;14.080;2022-08-19T06:06:26;11.80;;;10.10;;
6840;SDS011;3458;53.678;14.080;2022-08-19T06:08:51;11.97;;;10.47;;
6840;SDS011;3458;53.678;14.080;2022-08-19T06:11:21;13.73;;;11.00;;
6840;SDS011;3458;53.678;14.080;2022-08-19T06:13:49;11.00;;;9.77;;
6840;SDS011;3458;53.678;14.080;2022-08-19T06:16:18;13.97;;;10.53;;
6840;SDS011;3458;53.678;14.080;2022-08-19T06:18:50;13.20;;;9.70;;
6840;SDS011;3458;53.678;14.080;2022-08-19T06:21:21;13.33;;;9.90;;
6840;SDS011;3458;53.678;14.080;2022-08-19T06:23:47;13.30;;;10.13;;
6840;SDS011;3458;53.678;14.080;2022-08-19T06:26:15;15.80;;;10.10;;
6840;SDS011;3458;53.678;14.080;2022-08-19T06:28:41;12.23;;;9.83;;
6840;SDS011;3458;53.678;14.080;2022-08-19T06:31:11;12.87;;;9.83;;
6840;SDS011;3458;53.678;14.080;2022-08-19T06:33:50;11.90;;;10.63;;
6840;SDS011;3458;53.678;14.080;2022-08-19T06:36:20;12.90;;;10.60;;
6840;SDS011;3458;53.678;14.080;2022-08-19T06:38:55;12.37;;;10.50;;
6840;SDS011;3458;53.678;14.080;2022-08-19T06:41:21;11.00;;;9.90;;
6840;SDS011;3458;53.678;14.080;2022-08-19T06:43:47;14.73;;;10.40;;
6840;SDS011;3458;53.678;14.080;2022-08-19T06:46:14;12.63;;;10.57;;
6840;SDS011;3458;53.678;14.080;2022-08-19T06:48:41;14.27;;;10.70;;
6840;SDS011;3458;53.678;14.080;2022-08-19T06:51:06;12.33;;;10.70;;
6840;SDS011;3458;53.678;14.080;2022-08-19T06:53:32;12.83;;;10.70;;
6840;SDS011;3458;53.678;14.080;2022-08-19T06:55:58;23.60;;;13.10;;
6840;SDS011;3458;53.678;14.080;2022-08-19T06:58:30;17.00;;;10.53;;
6840;SDS011;3458;53.678;14.080;2022-08-19T07:01:00;11.93;;;9.43;;
6840;SDS011;3458;53.678;14.080;2022-08-19T07:03:32;15.27;;;10.40;;
6840;SDS011;3458;53.678;14.080;2022-08-19T07:06:03;11.40;;;10.20;;
6840;SDS011;3458;53.678;14.080;2022-08-19T07:08:34;12.03;;;10.73;;
6840;SDS011;3458;53.678;14.080;2022-08-19T07:11:01;12.33;;;10.00;;
6840;SDS011;3458;53.678;14.080;2022-08-19T07:13:31;12.73;;;10.90;;
6840;SDS011;3458;53.678;14.080;2022-08-19T07:16:05;14.77;;;9.87;;
6840;SDS011;3458;53.678;14.080;2022-08-19T07:18:32;14.37;;;11.40;;
6840;SDS011;3458;53.678;14.080;2022-08-19T07:21:14;12.80;;;10.73;;
6840;SDS011;3458;53.678;14.080;2022-08-19T07:23:42;13.70;;;11.60;;
6840;SDS011;3458;53.678;14.080;2022-08-19T07:26:09;16.93;;;10.53;;
6840;SDS011;3458;53.678;14.080;2022-08-19T07:28:36;15.87;;;10.53;;
6840;SDS011;3458;53.678;14.080;2022-08-19T07:31:04;16.53;;;10.63;;
6840;SDS011;3458;53.678;14.080;2022-08-19T07:33:33;11.27;;;9.83;;
6840;SDS011;3458;53.678;14.080;2022-08-19T07:36:02;12.30;;;9.60;;
6840;SDS011;3458;53.678;14.080;2022-08-19T07:38:29;12.57;;;9.87;;
6840;SDS011;3458;53.678;14.080;2022-08-19T07:40:54;12.87;;;9.10;;
6840;SDS011;3458;53.678;14.080;2022-08-19T07:43:20;12.87;;;8.90;;
6840;SDS011;3458;53.678;14.080;2022-08-19T07:45:50;13.57;;;11.20;;
6840;SDS011;3458;53.678;14.080;2022-08-19T07:48:16;16.93;;;11.27;;
6840;SDS011;3458;53.678;14.080;2022-08-19T07:50:42;13.80;;;9.80;;
6840;SDS011;3458;53.678;14.080;2022-08-19T07:53:07;13.83;;;10.10;;
6840;SDS011;3458;53.678;14.080;2022-08-19T07:55:33;13.27;;;10.20;;
6840;SDS011;3458;53.678;14.080;2022-08-19T07:57:59;11.87;;;10.30;;
6840;SDS011;3458;53.678;14.080;2022-08-19T08:00:25;11.53;;;9.77;;
6840;SDS011;3458;53.678;14.080;2022-08-19T08:02:51;11.70;;;8.90;;
6840;SDS011;3458;53.678;14.080;2022-08-19T08:05:18;14.30;;;8.50;;
6840;SDS011;3458;53.678;14.080;2022-08-19T08:08:11;9.37;;;8.47;;
6840;SDS011;3458;53.678;14.080;2022-08-19T08:10:57;12.17;;;9.80;;
6840;SDS011;3458;53.678;14.080;2022-08-19T08:13:24;16.83;;;8.87;;
6840;SDS011;3458;53.678;14.080;2022-08-19T08:15:50;11.87;;;8.67;;
6840;SDS011;3458;53.678;14.080;2022-08-19T08:18:15;11.03;;;8.77;;
6840;SDS011;3458;53.678;14.080;2022-08-19T08:20:41;16.60;;;9.00;;
6840;SDS011;3458;53.678;14.080;2022-08-19T08:23:06;11.10;;;8.53;;
6840;SDS011;3458;53.678;14.080;2022-08-19T08:25:47;14.50;;;9.33;;
6840;SDS011;3458;53.678;14.080;2022-08-19T08:28:13;18.73;;;8.70;;
6840;SDS011;3458;53.678;14.080;2022-08-19T08:30:40;10.77;;;9.00;;
6840;SDS011;3458;53.678;14.080;2022-08-19T08:33:07;11.50;;;8.77;;
6840;SDS011;3458;53.678;14.080;2022-08-19T08:35:33;12.77;;;10.00;;
6840;SDS011;3458;53.678;14.080;2022-08-19T08:37:59;11.93;;;9.37;;
6840;SDS011;3458;53.678;14.080;2022-08-19T08:40:27;11.63;;;8.60;;
6840;SDS011;3458;53.678;14.080;2022-08-19T08:45:53;14.40;;;8.33;;
6840;SDS011;3458;53.678;14.080;2022-08-19T08:48:46;9.90;;;8.90;;
6840;SDS011;3458;53.678;14.080;2022-08-19T08:51:24;11.90;;;9.37;;
6840;SDS011;3458;53.678;14.080;2022-08-19T08:53:53;10.40;;;8.63;;
6840;SDS011;3458;53.678;14.080;2022-08-19T08:56:20;11.23;;;9.17;;
6840;SDS011;3458;53.678;14.080;2022-08-19T08:59:02;9.43;;;8.63;;
6840;SDS011;3458;53.678;14.080;2022-08-19T09:01:34;11.40;;;9.60;;
6840;SDS011;3458;53.678;14.080;2022-08-19T09:04:02;17.30;;;10.63;;
6840;SDS011;3458;53.678;14.080;2022-08-19T09:06:51;12.20;;;9.40;;
6840;SDS011;3458;53.678;14.080;2022-08-19T09:09:31;11.33;;;9.07;;
6840;SDS011;3458;53.678;14.080;2022-08-19T09:12:05;11.00;;;9.63;;
6840;SDS011;3458;53.678;14.080;2022-08-19T09:15:03;11.27;;;8.73;;
6840;SDS011;3458;53.678;14.080;2022-08-19T09:17:31;11.07;;;9.67;;
6840;SDS011;3458;53.678;14.080;2022-08-19T09:20:04;9.90;;;8.90;;
6840;SDS011;3458;53.678;14.080;2022-08-19T09:22:42;10.50;;;9.37;;
6840;SDS011;3458;53.678;14.080;2022-08-19T09:25:09;12.17;;;8.53;;
6840;SDS011;3458;53.678;14.080;2022-08-19T09:27:37;15.30;;;9.70;;
6840;SDS011;3458;53.678;14.080;2022-08-19T09:30:04;11.00;;;9.30;;
6840;SDS011;3458;53.678;14.080;2022-08-19T09:32:32;10.70;;;9.50;;
6840;SDS011;3458;53.678;14.080;2022-08-19T09:34:58;12.70;;;9.77;;
6840;SDS011;3458;53.678;14.080;2022-08-19T09:37:25;12.60;;;10.43;;
6840;SDS011;3458;53.678;14.080;2022-08-19T09:39:51;17.43;;;11.00;;
6840;SDS011;3458;53.678;14.080;2022-08-19T09:42:17;12.10;;;10.37;;
6840;SDS011;3458;53.678;14.080;2022-08-19T09:44:44;14.43;;;11.60;;
6840;SDS011;3458;53.678;14.080;2022-08-19T09:47:11;12.63;;;10.03;;
6840;SDS011;3458;53.678;14.080;2022-08-19T09:49:39;14.03;;;11.73;;
6840;SDS011;3458;53.678;14.080;2022-08-19T09:52:05;13.73;;;12.33;;
6840;SDS011;3458;53.678;14.080;2022-08-19T09:54:33;14.47;;;11.70;;
6840;SDS011;3458;53.678;14.080;2022-08-19T09:56:59;16.50;;;10.60;;
6840;SDS011;3458;53.678;14.080;2022-08-19T09:59:25;12.50;;;11.20;;
6840;SDS011;3458;53.678;14.080;2022-08-19T10:01:51;17.63;;;13.33;;
6840;SDS011;3458;53.678;14.080;2022-08-19T10:04:17;14.37;;;11.13;;
6840;SDS011;3458;53.678;14.080;2022-08-19T10:06:42;14.27;;;11.50;;
6840;SDS011;3458;53.678;14.080;2022-08-19T10:09:08;14.50;;;12.40;;
6840;SDS011;3458;53.678;14.080;2022-08-19T10:11:35;13.73;;;10.73;;
6840;SDS011;3458;53.678;14.080;2022-08-19T10:14:04;15.40;;;12.27;;
6840;SDS011;3458;53.678;14.080;2022-08-19T10:16:30;10.70;;;9.67;;
6840;SDS011;3458;53.678;14.080;2022-08-19T10:18:57;12.10;;;10.80;;
6840;SDS011;3458;53.678;14.080;2022-08-19T10:21:23;10.53;;;9.00;;
6840;SDS011;3458;53.678;14.080;2022-08-19T10:23:54;11.57;;;10.17;;
6840;SDS011;3458;53.678;14.080;2022-08-19T10:26:24;12.67;;;10.20;;
6840;SDS011;3458;53.678;14.080;2022-08-19T10:28:53;13.73;;;9.67;;
6840;SDS011;3458;53.678;14.080;2022-08-19T10:31:21;17.30;;;9.67;;
6840;SDS011;3458;53.678;14.080;2022-08-19T10:33:52;12.00;;;9.63;;
6840;SDS011;3458;53.678;14.080;2022-08-19T10:36:24;11.83;;;8.70;;
6840;SDS011;3458;53.678;14.080;2022-08-19T10:38:52;14.03;;;8.77;;
6840;SDS011;3458;53.678;14.080;2022-08-19T10:41:22;14.33;;;11.23;;
6840;SDS011;3458;53.678;14.080;2022-08-19T10:43:56;13.50;;;12.20;;
6840;SDS011;3458;53.678;14.080;2022-08-19T10:46:24;14.40;;;11.10;;
6840;SDS011;3458;53.678;14.080;2022-08-19T10:48:51;13.70;;;9.80;;
6840;SDS011;3458;53.678;14.080;2022-08-19T10:51:18;12.67;;;9.50;;
6840;SDS011;3458;53.678;14.080;2022-08-19T10:54:03;12.67;;;10.33;;
6840;SDS011;3458;53.678;14.080;2022-08-19T10:56:29;14.90;;;9.77;;
6840;SDS011;3458;53.678;14.080;2022-08-19T10:59:15;12.27;;;9.20;;
6840;SDS011;3458;53.678;14.080;2022-08-19T11:01:42;11.63;;;9.07;;
6840;SDS011;3458;53.678;14.080;2022-08-19T11:04:10;9.70;;;8.27;;
6840;SDS011;3458;53.678;14.080;2022-08-19T11:06:38;12.30;;;9.07;;
6840;SDS011;3458;53.678;14.080;2022-08-19T11:09:05;12.97;;;9.83;;
6840;SDS011;3458;53.678;14.080;2022-08-19T11:11:31;18.20;;;9.70;;
6840;SDS011;3458;53.678;14.080;2022-08-19T11:13:58;10.23;;;8.90;;
6840;SDS011;3458;53.678;14.080;2022-08-19T11:16:24;10.30;;;9.10;;
6840;SDS011;3458;53.678;14.080;2022-08-19T11:18:57;10.53;;;9.40;;
6840;SDS011;3458;53.678;14.080;2022-08-19T11:21:25;11.47;;;9.40;;
6840;SDS011;3458;53.678;14.080;2022-08-19T11:23:52;14.43;;;9.23;;
6840;SDS011;3458;53.678;14.080;2022-08-19T11:26:20;10.50;;;9.37;;
6840;SDS011;3458;53.678;14.080;2022-08-19T11:28:46;13.50;;;9.57;;
6840;SDS011;3458;53.678;14.080;2022-08-19T11:31:13;11.43;;;9.63;;
6840;SDS011;3458;53.678;14.080;2022-08-19T11:33:44;13.33;;;9.73;;
6840;SDS011;3458;53.678;14.080;2022-08-19T11:36:10;15.30;;;10.57;;
6840;SDS011;3458;53.678;14.080;2022-08-19T11:38:37;13.10;;;10.00;;
6840;SDS011;3458;53.678;14.080;2022-08-19T11:41:04;14.17;;;9.70;;
6840;SDS011;3458;53.678;14.080;2022-08-19T11:43:34;12.47;;;10.07;;
6840;SDS011;3458;53.678;14.080;2022-08-19T11:46:05;11.17;;;9.67;;
6840;SDS011;3458;53.678;14.080;2022-08-19T11:48:33;16.03;;;9.70;;
6840;SDS011;3458;53.678;14.080;2022-08-19T11:51:02;9.70;;;8.40;;
6840;SDS011;3458;53.678;14.080;2022-08-19T11:53:31;17.53;;;10.90;;
6840;SDS011;3458;53.678;14.080;2022-08-19T11:55:57;9.60;;;8.57;;
6840;SDS011;3458;53.678;14.080;2022-08-19T11:58:23;10.70;;;9.23;;
6840;SDS011;3458;53.678;14.080;2022-08-19T12:00:50;13.33;;;8.57;;
6840;SDS011;3458;53.678;14.080;2022-08-19T12:03:16;10.87;;;9.77;;
6840;SDS011;3458;53.678;14.080;2022-08-19T12:05:41;10.37;;;9.00;;
6840;SDS011;3458;53.678;14.080;2022-08-19T12:08:07;9.87;;;8.47;;
6840;SDS011;3458;53.678;14.080;2022-08-19T12:10:33;12.73;;;9.33;;
6840;SDS011;3458;53.678;14.080;2022-08-19T12:12:59;14.37;;;9.90;;
6840;SDS011;3458;53.678;14.080;2022-08-19T12:15:26;13.40;;;10.23;;
6840;SDS011;3458;53.678;14.080;2022-08-19T12:17:53;11.43;;;10.23;;
6840;SDS011;3458;53.678;14.080;2022-08-19T12:20:21;11.80;;;9.50;;
6840;SDS011;3458;53.678;14.080;2022-08-19T12:22:48;11.77;;;9.80;;
6840;SDS011;3458;53.678;14.080;2022-08-19T12:25:14;14.27;;;11.50;;
6840;SDS011;3458;53.678;14.080;2022-08-19T12:27:39;12.17;;;10.57;;
6840;SDS011;3458;53.678;14.080;2022-08-19T12:30:06;24.93;;;14.80;;
6840;SDS011;3458;53.678;14.080;2022-08-19T12:32:34;14.73;;;10.20;;
6840;SDS011;3458;53.678;14.080;2022-08-19T12:35:00;14.27;;;10.97;;
6840;SDS011;3458;53.678;14.080;2022-08-19T12:37:26;17.77;;;12.57;;
6840;SDS011;3458;53.678;14.080;2022-08-19T12:39:51;16.90;;;12.37;;
6840;SDS011;3458;53.678;14.080;2022-08-19T12:42:17;15.33;;;13.10;;
6840;SDS011;3458;53.678;14.080;2022-08-19T12:44:43;18.90;;;13.17;;
6840;SDS011;3458;53.678;14.080;2022-08-19T12:47:10;13.40;;;12.00;;
6840;SDS011;3458;53.678;14.080;2022-08-19T12:49:38;15.90;;;13.00;;
6840;SDS011;3458;53.678;14.080;2022-08-19T12:52:04;13.60;;;12.20;;
6840;SDS011;3458;53.678;14.080;2022-08-19T12:54:32;14.93;;;11.43;;
6840;SDS011;3458;53.678;14.080;2022-08-19T12:56:58;16.20;;;10.83;;
6840;SDS011;3458;53.678;14.080;2022-08-19T12:59:24;13.30;;;10.70;;
6840;SDS011;3458;53.678;14.080;2022-08-19T13:01:50;12.93;;;10.17;;
6840;SDS011;3458;53.678;14.080;2022-08-19T13:04:15;16.20;;;11.47;;
6840;SDS011;3458;53.678;14.080;2022-08-19T13:06:41;14.20;;;11.40;;
6840;SDS011;3458;53.678;14.080;2022-08-19T13:09:07;15.37;;;11.40;;
6840;SDS011;3458;53.678;14.080;2022-08-19T13:11:33;11.43;;;9.43;;
6840;SDS011;3458;53.678;14.080;2022-08-19T13:14:00;13.90;;;10.33;;
6840;SDS011;3458;53.678;14.080;2022-08-19T13:16:27;14.47;;;9.50;;
6840;SDS011;3458;53.678;14.080;2022-08-19T13:18:54;12.70;;;10.93;;
6840;SDS011;3458;53.678;14.080;2022-08-19T13:21:21;13.80;;;10.33;;
6840;SDS011;3458;53.678;14.080;2022-08-19T13:23:48;15.17;;;10.07;;
6840;SDS011;3458;53.678;14.080;2022-08-19T13:26:14;14.30;;;9.23;;
6840;SDS011;3458;53.678;14.080;2022-08-19T13:28:41;12.47;;;9.73;;
6840;SDS011;3458;53.678;14.080;2022-08-19T13:31:27;17.60;;;9.40;;
6840;SDS011;3458;53.678;14.080;2022-08-19T13:34:13;18.00;;;10.37;;
6840;SDS011;3458;53.678;14.080;2022-08-19T13:36:39;14.90;;;10.73;;
6840;SDS011;3458;53.678;14.080;2022-08-19T13:39:06;9.03;;;8.13;;
6840;SDS011;3458;53.678;14.080;2022-08-19T13:41:33;12.57;;;9.30;;
6840;SDS011;3458;53.678;14.080;2022-08-19T13:43:59;9.20;;;8.23;;
6840;SDS011;3458;53.678;14.080;2022-08-19T13:46:26;12.90;;;9.00;;
6840;SDS011;3458;53.678;14.080;2022-08-19T13:48:52;12.60;;;8.50;;
6840;SDS011;3458;53.678;14.080;2022-08-19T13:51:17;9.17;;;8.00;;
6840;SDS011;3458;53.678;14.080;2022-08-19T13:53:43;9.57;;;8.57;;
6840;SDS011;3458;53.678;14.080;2022-08-19T13:56:10;10.27;;;9.00;;
6840;SDS011;3458;53.678;14.080;2022-08-19T13:58:40;9.90;;;9.00;;
6840;SDS011;3458;53.678;14.080;2022-08-19T14:01:06;9.50;;;8.50;;
6840;SDS011;3458;53.678;14.080;2022-08-19T14:03:32;11.73;;;7.67;;
6840;SDS011;3458;53.678;14.080;2022-08-19T14:05:58;8.30;;;7.50;;
6840;SDS011;3458;53.678;14.080;2022-08-19T14:08:24;10.50;;;8.00;;
6840;SDS011;3458;53.678;14.080;2022-08-19T14:10:50;9.13;;;7.87;;
6840;SDS011;3458;53.678;14.080;2022-08-19T14:13:17;9.33;;;7.70;;
6840;SDS011;3458;53.678;14.080;2022-08-19T14:15:45;10.77;;;8.70;;
6840;SDS011;3458;53.678;14.080;2022-08-19T14:18:12;11.00;;;8.80;;
6840;SDS011;3458;53.678;14.080;2022-08-19T14:20:38;10.03;;;9.00;;
6840;SDS011;3458;53.678;14.080;2022-08-19T14:23:03;14.87;;;9.27;;
6840;SDS011;3458;53.678;14.080;2022-08-19T14:25:32;14.10;;;9.20;;
6840;SDS011;3458;53.678;14.080;2022-08-19T14:27:59;12.73;;;10.40;;
6840;SDS011;3458;53.678;14.080;2022-08-19T14:30:26;10.60;;;9.50;;
6840;SDS011;3458;53.678;14.080;2022-08-19T14:32:56;11.40;;;9.33;;
6840;SDS011;3458;53.678;14.080;2022-08-19T14:35:23;11.60;;;9.40;;
6840;SDS011;3458;53.678;14.080;2022-08-19T14:37:49;14.00;;;10.00;;
6840;SDS011;3458;53.678;14.080;2022-08-19T14:40:20;13.53;;;10.03;;
6840;SDS011;3458;53.678;14.080;2022-08-19T14:42:50;12.73;;;9.23;;
6840;SDS011;3458;53.678;14.080;2022-08-19T14:45:17;14.17;;;10.70;;
6840;SDS011;3458;53.678;14.080;2022-08-19T14:47:42;13.10;;;9.77;;
6840;SDS011;3458;53.678;14.080;2022-08-19T14:50:08;17.70;;;9.80;;
6840;SDS011;3458;53.678;14.080;2022-08-19T14:52:35;15.03;;;9.77;;
6840;SDS011;3458;53.678;14.080;2022-08-19T14:55:02;12.37;;;9.70;;
6840;SDS011;3458;53.678;14.080;2022-08-19T14:57:28;15.40;;;9.60;;
6840;SDS011;3458;53.678;14.080;2022-08-19T14:59:54;11.80;;;8.43;;